Time;durP1;ratioP1;P1;durP2;ratioP2;P2;SDS_P1;SDS_P2;PMS_P1;PMS_P2;Temp;Humidity;BMP_temperature;BMP_pressure;BME280_temperature;BME280_humidity;BME280_pressure;Samples;Min_cycle;Max_cycle;Signal;HPM_P1;HPM_P2
2021/10/27 00:00:11;;;;;;;;;4.25;4.00;;;;;14.75;64.95;102183.47;5056103;28;45728;-82
2021/10/27 00:02:37;;;;;;;;;5.25;5.00;;;;;14.69;65.35;102176.22;5055802;28;46707;-82
2021/10/27 00:05:05;;;;;;;;;6.50;6.00;;;;;14.66;65.28;102169.13;5055723;28;45285;-80
2021/10/27 00:07:32;;;;;;;;;7.50;6.75;;;;;14.72;65.43;102181.59;5035578;28;45353;-80
2021/10/27 00:09:58;;;;;;;;;5.00;5.00;;;;;14.75;65.30;102186.06;5036085;28;45346;-82
2021/10/27 00:12:23;;;;;;;;;7.75;7.75;;;;;14.73;65.48;102178.19;5034038;28;45725;-81
2021/10/27 00:14:49;;;;;;;;;6.00;4.25;;;;;14.77;64.96;102185.31;5035801;28;45463;-80
2021/10/27 00:17:15;;;;;;;;;8.00;5.00;;;;;14.77;65.54;102181.84;5036101;28;45510;-80
2021/10/27 00:19:40;;;;;;;;;9.00;5.00;;;;;14.75;64.90;102189.56;5041906;28;45518;-81
2021/10/27 00:22:06;;;;;;;;;7.50;5.00;;;;;14.77;65.45;102197.47;5037534;28;47303;-80
2021/10/27 00:24:31;;;;;;;;;5.50;5.00;;;;;14.66;64.98;102171.72;5055359;28;45332;-80
2021/10/27 00:26:57;;;;;;;;;5.50;5.00;;;;;14.76;64.85;102196.56;5055622;28;45486;-81
2021/10/27 00:29:22;;;;;;;;;9.25;6.00;;;;;14.78;64.82;102194.94;5057888;28;45174;-79
2021/10/27 00:31:48;;;;;;;;;7.25;5.00;;;;;14.69;64.86;102184.94;5058913;28;45347;-78
2021/10/27 00:34:14;;;;;;;;;8.25;6.50;;;;;14.68;65.19;102179.66;5059477;28;45372;-79
2021/10/27 00:36:39;;;;;;;;;5.50;5.25;;;;;14.77;65.46;102194.88;5058935;28;45407;-79
2021/10/27 00:39:05;;;;;;;;;10.00;7.00;;;;;14.76;65.35;102195.69;5040852;28;45473;-79
2021/10/27 00:41:31;;;;;;;;;6.00;5.75;;;;;14.71;65.44;102185.03;5058329;28;45536;-79
2021/10/27 00:43:56;;;;;;;;;6.75;5.50;;;;;14.65;65.54;102177.75;5058847;28;45301;-78
2021/10/27 00:46:23;;;;;;;;;7.00;5.50;;;;;14.71;65.64;102190.25;5058716;28;45364;-79
2021/10/27 00:48:50;;;;;;;;;6.50;6.00;;;;;14.67;65.12;102183.06;5059205;28;45506;-79
2021/10/27 00:51:17;;;;;;;;;6.00;4.00;;;;;14.70;65.57;102194.53;5058922;28;45868;-79
2021/10/27 00:53:44;;;;;;;;;5.50;4.25;;;;;14.71;65.43;102195.47;5059263;28;45755;-81
2021/10/27 00:56:11;;;;;;;;;4.50;3.50;;;;;14.67;65.64;102186.59;5059130;28;45346;-79
2021/10/27 00:58:37;;;;;;;;;4.50;4.00;;;;;14.61;65.31;102186.22;5059548;28;45257;-79
2021/10/27 01:01:04;;;;;;;;;7.75;7.00;;;;;14.72;65.10;102197.25;5057351;28;45890;-79
2021/10/27 01:03:31;;;;;;;;;6.00;6.00;;;;;14.72;65.41;102191.13;5058350;28;45918;-82
2021/10/27 01:05:56;;;;;;;;;8.50;5.00;;;;;14.70;65.67;102189.34;5058721;28;45451;-79
2021/10/27 01:08:22;;;;;;;;;6.75;6.75;;;;;14.71;65.92;102187.63;5058650;28;45359;-79
2021/10/27 01:10:48;;;;;;;;;6.00;6.00;;;;;14.68;65.68;102191.00;5058760;28;46303;-79
2021/10/27 01:13:14;;;;;;;;;7.25;7.25;;;;;14.72;65.80;102185.91;5058903;28;45297;-83
2021/10/27 01:15:41;;;;;;;;;8.25;7.25;;;;;14.72;65.26;102181.59;5040064;28;45329;-81
2021/10/27 01:18:08;;;;;;;;;9.50;8.00;;;;;14.74;65.82;102179.06;5058622;28;45363;-80
2021/10/27 01:20:35;;;;;;;;;7.25;6.75;;;;;14.70;65.81;102184.13;5051048;28;45401;-81
2021/10/27 01:23:01;;;;;;;;;7.50;7.00;;;;;14.58;65.88;102173.03;5058113;28;45329;-82
2021/10/27 01:25:26;;;;;;;;;7.00;6.50;;;;;14.65;65.46;102182.97;5058388;28;45315;-80
2021/10/27 01:27:53;;;;;;;;;6.00;6.00;;;;;14.64;65.46;102188.09;5058516;28;45287;-82
2021/10/27 01:30:21;;;;;;;;;10.50;9.50;;;;;14.61;65.81;102186.22;5058239;28;46582;-81
2021/10/27 01:32:48;;;;;;;;;6.25;6.25;;;;;14.55;66.17;102181.59;5057497;28;45534;-82
2021/10/27 01:35:15;;;;;;;;;9.25;7.50;;;;;14.59;65.67;102186.97;5058563;28;45457;-80
2021/10/27 01:37:41;;;;;;;;;8.00;6.75;;;;;14.52;66.13;102163.19;5058383;28;45610;-79
2021/10/27 01:40:11;;;;;;;;;7.00;7.00;;;;;14.57;65.67;102170.38;5056438;28;45447;-78
2021/10/27 01:42:37;;;;;;;;;8.75;8.75;;;;;14.50;66.07;102163.94;5057822;28;45761;-81
2021/10/27 01:45:04;;;;;;;;;6.00;6.00;;;;;14.53;66.27;102174.53;5057829;28;45334;-77
2021/10/27 01:47:30;;;;;;;;;8.00;8.00;;;;;14.47;66.06;102162.09;5057749;28;45284;-81
2021/10/27 01:49:56;;;;;;;;;10.25;10.25;;;;;14.49;66.01;102168.28;5056896;28;45477;-83
2021/10/27 01:52:21;;;;;;;;;10.25;9.00;;;;;14.44;66.15;102161.94;5057739;28;45482;-82
2021/10/27 01:54:47;;;;;;;;;12.50;9.50;;;;;14.37;65.87;102157.22;5057664;28;45420;-81
2021/10/27 01:57:12;;;;;;;;;12.50;9.75;;;;;14.32;66.25;102156.09;5057462;28;45377;-82
2021/10/27 01:59:38;;;;;;;;;11.25;10.25;;;;;14.34;66.40;102164.88;5057335;28;45629;-83
2021/10/27 02:02:04;;;;;;;;;9.00;9.00;;;;;14.33;66.55;102155.28;5069945;28;45267;-81
2021/10/27 02:04:30;;;;;;;;;8.25;7.75;;;;;14.34;66.74;102157.06;5070745;28;45259;-83
2021/10/27 02:06:55;;;;;;;;;8.50;7.75;;;;;14.34;66.15;102154.47;5056950;28;45683;-80
2021/10/27 02:09:21;;;;;;;;;11.00;9.00;;;;;14.29;66.45;102141.19;5056138;28;45547;-82
2021/10/27 02:11:48;;;;;;;;;9.75;8.75;;;;;14.35;66.21;102143.22;5056898;28;45893;-83
2021/10/27 02:14:14;;;;;;;;;9.75;7.75;;;;;14.34;66.51;102149.25;5047934;28;45513;-83
2021/10/27 02:16:39;;;;;;;;;10.25;9.00;;;;;14.30;66.22;102148.19;5056322;28;45491;-83
2021/10/27 02:19:06;;;;;;;;;10.25;8.75;;;;;14.27;66.73;102139.34;5056161;28;45475;-82
2021/10/27 02:21:32;;;;;;;;;8.00;6.75;;;;;14.25;66.37;102147.09;5055858;28;45245;-82
2021/10/27 02:23:58;;;;;;;;;10.00;8.25;;;;;14.26;66.65;102153.19;5056394;28;45244;-83
2021/10/27 02:26:24;;;;;;;;;9.50;9.25;;;;;14.22;66.53;102155.63;5055182;28;45610;-79
2021/10/27 02:28:49;;;;;;;;;10.25;7.00;;;;;14.24;66.84;102158.31;5054722;28;45400;-78
2021/10/27 02:31:15;;;;;;;;;8.25;8.25;;;;;14.20;66.83;102157.25;5055224;28;45672;-79
2021/10/27 02:33:41;;;;;;;;;8.75;7.50;;;;;14.21;66.86;102147.75;5056559;28;45403;-79
2021/10/27 02:36:06;;;;;;;;;8.50;7.25;;;;;14.18;66.63;102138.06;5054478;28;45733;-79
2021/10/27 02:38:32;;;;;;;;;9.00;9.00;;;;;14.20;66.42;102152.03;5054471;28;45693;-79
2021/10/27 02:40:58;;;;;;;;;9.00;6.75;;;;;14.23;67.12;102151.31;5054686;28;45399;-78
2021/10/27 02:43:24;;;;;;;;;8.50;7.00;;;;;14.18;66.59;102145.88;5054673;28;45465;-79
2021/10/27 02:45:49;;;;;;;;;8.00;8.00;;;;;14.22;66.68;102147.81;5054769;28;45712;-79
2021/10/27 02:48:15;;;;;;;;;7.00;7.00;;;;;14.23;66.51;102151.31;5054300;28;46367;-79
2021/10/27 02:50:43;;;;;;;;;11.25;8.00;;;;;14.17;66.36;102144.09;5036192;28;45887;-79
2021/10/27 02:53:09;;;;;;;;;6.50;5.00;;;;;14.15;66.18;102140.50;5054503;28;45513;-79
2021/10/27 02:55:35;;;;;;;;;6.75;5.75;;;;;14.20;66.44;102154.63;5034597;28;45533;-78
2021/10/27 02:58:01;;;;;;;;;8.25;6.75;;;;;14.17;66.35;102149.28;5034317;28;46191;-79
2021/10/27 03:00:27;;;;;;;;;8.25;6.00;;;;;14.19;66.77;102147.66;5050456;28;45407;-78
2021/10/27 03:02:54;;;;;;;;;4.75;4.75;;;;;14.19;66.77;102150.28;5056490;28;45305;-78
2021/10/27 03:05:23;;;;;;;;;7.00;4.50;;;;;14.16;66.62;102149.19;5056853;28;45581;-79
2021/10/27 03:07:49;;;;;;;;;6.00;5.25;;;;;14.16;66.91;102147.50;5038368;28;47233;-79
2021/10/27 03:10:14;;;;;;;;;6.75;6.00;;;;;14.08;66.51;102133.19;5057020;28;45253;-80
2021/10/27 03:12:41;;;;;;;;;7.75;6.00;;;;;14.18;66.19;102139.75;5056176;28;45383;-79
2021/10/27 03:15:07;;;;;;;;;5.25;5.25;;;;;14.15;66.42;102135.28;5056601;28;45609;-78
2021/10/27 03:17:33;;;;;;;;;8.00;6.00;;;;;14.14;66.53;102133.50;5056204;28;46349;-79
2021/10/27 03:19:59;;;;;;;;;7.00;6.25;;;;;14.06;66.02;102114.88;5056561;28;45966;-78
2021/10/27 03:22:25;;;;;;;;;8.50;5.75;;;;;14.10;66.47;102121.13;5055700;28;45341;-79
2021/10/27 03:24:50;;;;;;;;;5.00;5.00;;;;;14.05;66.50;102112.19;5056127;28;45449;-78
2021/10/27 03:27:16;;;;;;;;;4.00;4.00;;;;;14.07;66.44;102114.06;5055988;28;46315;-78
2021/10/27 03:29:42;;;;;;;;;8.00;6.00;;;;;14.04;66.22;102120.81;5055794;28;45823;-78
2021/10/27 03:32:09;;;;;;;;;5.00;5.00;;;;;14.04;66.24;102111.28;5048855;28;45358;-78
2021/10/27 03:34:37;;;;;;;;;5.75;5.50;;;;;14.07;66.34;102123.59;5056602;28;45570;-80
2021/10/27 03:37:03;;;;;;;;;6.25;5.50;;;;;14.04;66.73;102124.31;5056106;28;45838;-80
2021/10/27 03:39:29;;;;;;;;;6.25;5.50;;;;;14.09;66.65;102124.56;5056268;28;45783;-81
2021/10/27 03:41:55;;;;;;;;;5.75;5.50;;;;;14.12;66.29;102124.72;5038133;28;45477;-82
2021/10/27 03:44:21;;;;;;;;;7.75;6.00;;;;;14.04;66.35;102113.00;5056182;28;45541;-81
2021/10/27 03:46:46;;;;;;;;;8.25;5.25;;;;;14.10;66.55;102123.72;5056074;28;46051;-82
2021/10/27 03:49:12;;;;;;;;;6.00;5.50;;;;;14.06;66.54;102127.88;5054882;28;45363;-82
2021/10/27 03:51:38;;;;;;;;;4.75;4.00;;;;;14.02;66.65;102123.34;5055383;28;45429;-83
2021/10/27 03:54:03;;;;;;;;;5.25;5.00;;;;;14.01;66.34;102129.38;5056223;28;45224;-82
2021/10/27 03:56:29;;;;;;;;;7.50;7.00;;;;;13.93;66.79;102121.16;5054680;28;46010;-82
2021/10/27 03:58:55;;;;;;;;;5.00;5.00;;;;;13.98;66.89;102124.00;5055498;28;45219;-81
2021/10/27 04:01:20;;;;;;;;;4.50;4.50;;;;;13.97;67.19;102130.03;5055221;28;45438;-82
2021/10/27 04:03:47;;;;;;;;;6.50;6.00;;;;;13.97;66.68;102136.94;5057894;28;45585;-81
2021/10/27 04:06:12;;;;;;;;;6.50;6.00;;;;;13.93;66.70;102123.75;5059200;28;45350;-82
2021/10/27 04:08:38;;;;;;;;;9.50;5.50;;;;;13.91;66.55;102122.78;5058804;28;45450;-81
2021/10/27 04:11:04;;;;;;;;;6.00;6.00;;;;;13.89;66.46;102120.91;5059670;28;45389;-81
2021/10/27 04:13:30;;;;;;;;;5.75;5.00;;;;;13.91;66.88;102130.59;5059560;28;45641;-84
2021/10/27 04:15:55;;;;;;;;;5.25;4.25;;;;;13.88;66.95;102129.53;5059345;28;45668;-82
2021/10/27 04:18:21;;;;;;;;;5.00;4.25;;;;;13.83;66.82;102120.59;5063986;28;45367;-79
2021/10/27 04:20:47;;;;;;;;;8.50;6.25;;;;;13.84;66.93;102131.09;5073458;28;45398;-82
2021/10/27 04:23:12;;;;;;;;;5.75;5.00;;;;;13.84;66.85;102136.31;5060663;28;45406;-80
2021/10/27 04:25:38;;;;;;;;;8.50;8.00;;;;;13.77;66.75;102127.28;5058990;28;45648;-80
2021/10/27 04:28:05;;;;;;;;;6.00;6.00;;;;;13.78;66.95;102141.16;5041008;28;45258;-81
2021/10/27 04:30:30;;;;;;;;;4.50;4.50;;;;;13.68;66.99;102123.28;5058280;28;45457;-81
2021/10/27 04:32:56;;;;;;;;;6.50;5.75;;;;;13.72;67.41;102138.25;5059069;28;45383;-80
2021/10/27 04:35:22;;;;;;;;;5.25;5.25;;;;;13.73;67.42;102137.44;5058478;28;45950;-80
2021/10/27 04:37:49;;;;;;;;;7.00;7.00;;;;;13.68;67.29;102137.19;5058504;28;45924;-77
2021/10/27 04:40:17;;;;;;;;;6.75;5.00;;;;;13.68;67.30;102139.81;5061128;28;45343;-82
2021/10/27 04:42:43;;;;;;;;;7.00;6.50;;;;;13.69;67.70;102145.88;5060685;28;45556;-82
2021/10/27 04:45:10;;;;;;;;;8.00;7.00;;;;;13.67;67.18;102147.50;5040931;28;47107;-82
2021/10/27 04:47:37;;;;;;;;;6.00;6.00;;;;;13.62;67.74;102142.06;5057494;28;45300;-78
2021/10/27 04:50:05;;;;;;;;;7.75;6.75;;;;;13.59;67.69;102149.72;5058380;28;45833;-78
2021/10/27 04:52:31;;;;;;;;;5.75;5.00;;;;;13.52;67.42;102131.97;5041110;28;45192;-77
2021/10/27 04:54:57;;;;;;;;;9.50;7.00;;;;;13.52;68.13;102138.09;5057592;28;45435;-77
2021/10/27 04:57:22;;;;;;;;;6.75;6.00;;;;;13.52;67.99;102132.88;5058403;28;45332;-78
2021/10/27 04:59:49;;;;;;;;;6.50;5.50;;;;;13.57;68.03;102140.94;5055499;28;45471;-78
2021/10/27 05:02:16;;;;;;;;;7.25;6.00;;;;;13.53;67.77;102138.97;5040374;28;45630;-78
2021/10/27 05:04:43;;;;;;;;;11.00;8.00;;;;;13.51;68.12;102133.69;5058355;28;45529;-77
2021/10/27 05:07:11;;;;;;;;;7.25;7.00;;;;;13.51;68.27;102140.56;5058378;28;45856;-77
2021/10/27 05:09:36;;;;;;;;;7.00;6.50;;;;;13.50;68.05;102137.09;5057927;28;45379;-78
2021/10/27 05:12:04;;;;;;;;;9.00;8.00;;;;;13.46;68.02;102129.94;5058199;28;45425;-78
2021/10/27 05:14:35;;;;;;;;;7.25;7.25;;;;;13.49;68.20;102131.81;5039498;28;46272;-77
2021/10/27 05:17:02;;;;;;;;;7.50;6.75;;;;;13.47;68.21;102131.72;5056896;28;45232;-77
2021/10/27 05:19:27;;;;;;;;;8.25;7.00;;;;;13.47;68.46;102134.31;5057033;28;45422;-77
2021/10/27 05:21:53;;;;;;;;;7.50;7.50;;;;;13.46;68.37;102132.53;5040284;28;45443;-77
2021/10/27 05:24:19;;;;;;;;;7.75;7.75;;;;;13.48;68.15;102125.72;5057423;28;45824;-79
2021/10/27 05:26:45;;;;;;;;;8.25;8.25;;;;;13.50;68.22;102137.09;5058358;28;45320;-80
2021/10/27 05:29:10;;;;;;;;;9.75;9.25;;;;;13.44;67.97;102135.06;5039133;28;45346;-79
2021/10/27 05:31:37;;;;;;;;;9.50;7.25;;;;;13.43;68.10;102135.00;5058147;28;45380;-79
2021/10/27 05:34:03;;;;;;;;;8.75;8.00;;;;;13.41;68.00;102131.41;5057273;28;45538;-79
2021/10/27 05:36:29;;;;;;;;;7.50;7.50;;;;;13.37;68.43;102129.41;5057691;28;46743;-80
2021/10/27 05:38:55;;;;;;;;;9.75;8.25;;;;;13.38;68.29;102126.91;5057808;28;45383;-80
2021/10/27 05:41:21;;;;;;;;;9.25;9.25;;;;;13.39;68.46;102133.91;5058106;28;45410;-81
2021/10/27 05:43:47;;;;;;;;;10.00;8.00;;;;;13.32;68.43;102131.75;5057804;28;46100;-81
2021/10/27 05:46:13;;;;;;;;;9.00;8.25;;;;;13.34;67.99;102126.63;5057655;28;45292;-79
2021/10/27 05:48:44;;;;;;;;;9.00;7.00;;;;;13.36;68.25;102131.13;5057463;28;45284;-80
2021/10/27 05:51:18;;;;;;;;;8.00;7.00;;;;;13.26;68.37;102115.81;5057416;28;45355;-78
2021/10/27 05:56:29;;;;;;;;;7.75;7.75;;;;;13.31;68.13;102129.97;5056222;28;45410;-79
2021/10/27 05:58:55;;;;;;;;;9.00;7.25;;;;;13.31;68.37;102125.66;5039755;28;45482;-78
2021/10/27 06:01:21;;;;;;;;;8.50;8.00;;;;;13.29;68.45;102118.56;5057401;28;45610;-79
2021/10/27 06:03:46;;;;;;;;;9.00;6.25;;;;;13.25;68.16;102117.50;5056777;28;45556;-79
2021/10/27 06:06:12;;;;;;;;;9.75;7.50;;;;;13.32;68.51;102136.94;5038044;28;45422;-81
2021/10/27 06:08:38;;;;;;;;;10.00;8.00;;;;;13.29;68.18;102128.97;5042879;28;45515;-78
2021/10/27 06:11:11;;;;;;;;;8.75;7.75;;;;;13.31;68.34;102135.16;5055384;28;45477;-77
2021/10/27 06:13:44;;;;;;;;;10.00;7.25;;;;;13.25;68.40;102124.44;5054049;28;45689;-78
2021/10/27 06:16:09;;;;;;;;;11.25;8.50;;;;;13.25;68.36;102120.09;5055714;28;45885;-77
2021/10/27 06:18:35;;;;;;;;;9.00;8.00;;;;;13.30;68.58;102126.47;5056535;28;45430;-78
2021/10/27 06:21:00;;;;;;;;;10.50;10.50;;;;;13.29;68.28;102122.09;5038486;28;45386;-82
2021/10/27 06:23:26;;;;;;;;;8.75;7.75;;;;;13.27;68.66;102110.69;5056602;28;45707;-79
2021/10/27 06:25:52;;;;;;;;;10.25;9.75;;;;;13.35;68.55;102115.41;5056718;28;45379;-80
2021/10/27 06:28:23;;;;;;;;;10.25;7.75;;;;;13.34;68.50;102114.53;5055945;28;45511;-79
2021/10/27 06:35:58;;;;;;;;;9.50;8.00;;;;;13.43;68.04;102125.47;5060100;28;45181;-79
2021/10/27 06:46:36;;;;;;;;;8.75;7.50;;;;;13.50;67.83;102131.91;5058064;28;45731;-84
2021/10/27 06:49:02;;;;;;;;;8.75;8.25;;;;;13.52;68.05;102139.78;5056092;28;45319;-82
2021/10/27 06:51:28;;;;;;;;;10.00;9.50;;;;;13.52;67.60;102132.88;5056480;28;45493;-80
2021/10/27 06:53:54;;;;;;;;;10.75;10.00;;;;;13.48;67.75;102125.72;5056597;28;46003;-84
2021/10/27 06:56:21;;;;;;;;;15.25;11.00;;;;;13.57;68.08;102138.31;5056078;28;45382;-83
2021/10/27 07:15:05;;;;;;;;;11.00;9.75;;;;;13.66;68.16;102171.78;5057023;28;45335;-81
2021/10/27 07:17:32;;;;;;;;;15.50;12.25;;;;;13.68;67.51;102171.03;5038482;28;45381;-79
2021/10/27 07:20:08;;;;;;;;;15.75;11.50;;;;;13.68;67.59;102167.50;5037844;28;45389;-82
2021/10/27 07:22:34;;;;;;;;;10.25;10.25;;;;;13.71;67.12;102172.91;5056304;28;45368;-79
2021/10/27 07:25:01;;;;;;;;;7.50;6.50;;;;;13.71;67.05;102171.22;5037758;28;46193;-83
2021/10/27 07:27:28;;;;;;;;;15.50;15.50;;;;;13.73;67.42;102173.88;5056508;28;45544;-79
2021/10/27 07:29:53;;;;;;;;;13.50;13.00;;;;;13.73;67.04;102179.97;5058444;28;45481;-82
2021/10/27 07:32:19;;;;;;;;;13.25;11.50;;;;;13.73;67.44;102187.78;5058310;28;45485;-78
2021/10/27 07:34:56;;;;;;;;;14.75;11.75;;;;;13.72;67.25;102183.38;5058108;28;45417;-90
2021/10/27 07:42:39;;;;;;;;;16.00;13.00;;;;;13.75;67.69;102185.28;5059548;28;45407;-91
2021/10/27 07:45:05;;;;;;;;;16.00;14.00;;;;;13.73;67.41;102189.50;5058116;28;46516;-85
2021/10/27 07:47:31;;;;;;;;;13.50;12.00;;;;;13.78;67.38;102190.63;5056125;28;45920;-78
2021/10/27 07:49:57;;;;;;;;;15.25;13.75;;;;;13.82;67.21;102199.53;5055354;28;45347;-80
2021/10/27 07:52:23;;;;;;;;;18.75;15.00;;;;;13.69;67.48;102174.50;5050601;28;45458;-81
2021/10/27 07:54:49;;;;;;;;;14.25;13.25;;;;;13.85;67.51;102197.06;5056803;28;45443;-81
2021/10/27 07:57:15;;;;;;;;;17.00;13.50;;;;;13.88;67.08;102207.66;5057888;28;45266;-85
2021/10/27 07:59:41;;;;;;;;;15.00;14.00;;;;;13.87;66.65;102206.78;5039457;28;45536;-80
2021/10/27 08:02:07;;;;;;;;;17.00;15.75;;;;;13.83;67.21;102204.81;5056472;28;45357;-83
2021/10/27 08:04:34;;;;;;;;;15.00;14.25;;;;;13.76;66.56;102190.56;5057801;28;45449;-81
2021/10/27 08:07:00;;;;;;;;;16.25;14.75;;;;;13.87;67.13;102211.06;5055419;28;45879;-83
2021/10/27 08:09:26;;;;;;;;;16.50;15.75;;;;;13.85;66.50;102194.47;5050432;28;45252;-90
2021/10/27 08:11:51;;;;;;;;;13.50;13.00;;;;;13.88;66.97;102197.22;5051991;28;45274;-85
2021/10/27 08:14:17;;;;;;;;;18.25;16.25;;;;;13.90;66.49;102206.91;5038852;28;47833;-79
2021/10/27 08:16:45;;;;;;;;;12.75;11.50;;;;;13.89;66.91;102199.91;5037995;28;45210;-83
2021/10/27 08:19:11;;;;;;;;;17.25;13.25;;;;;13.80;67.03;102181.19;5027649;28;45448;-90
2021/10/27 08:21:37;;;;;;;;;17.25;16.75;;;;;13.91;66.91;102195.69;5050641;28;45368;-90
2021/10/27 08:24:04;;;;;;;;;15.50;14.00;;;;;13.82;66.63;102176.97;5044179;28;45979;-89
2021/10/27 08:26:30;;;;;;;;;16.25;12.25;;;;;13.94;66.45;102192.34;5041117;28;45852;-85
2021/10/27 08:28:58;;;;;;;;;16.25;15.00;;;;;13.86;66.54;102178.94;5041057;28;45517;-87
2021/10/27 08:36:23;;;;;;;;;13.75;11.25;;;;;13.84;66.70;102185.78;5063376;28;45814;-90
2021/10/27 08:38:55;;;;;;;;;13.75;13.75;;;;;13.85;66.56;102187.56;5054706;28;45367;-84
2021/10/27 08:41:21;;;;;;;;;15.50;15.50;;;;;13.88;66.94;102194.63;5039051;28;45749;-84
2021/10/27 08:43:47;;;;;;;;;15.50;14.50;;;;;13.82;66.46;102176.97;5058018;28;45542;-82
2021/10/27 08:46:14;;;;;;;;;14.50;13.00;;;;;13.90;66.40;102187.81;5051806;28;45783;-83
2021/10/27 08:48:44;;;;;;;;;19.50;16.75;;;;;13.86;66.70;102184.16;5055673;28;45260;-83
2021/10/27 08:51:12;;;;;;;;;16.75;14.25;;;;;13.83;66.88;102170.03;5059115;28;45335;-83
2021/10/27 08:53:38;;;;;;;;;17.50;15.00;;;;;13.98;66.64;102186.50;5058897;28;46127;-79
2021/10/27 08:56:06;;;;;;;;;17.50;15.50;;;;;13.99;66.72;102184.78;5065201;28;45418;-83
2021/10/27 08:58:39;;;;;;;;;16.75;16.75;;;;;14.04;66.65;102183.31;5061441;28;45352;-79
2021/10/27 09:06:58;;;;;;;;;15.75;13.50;;;;;14.21;66.31;102177.28;5062466;28;45789;-83
2021/10/27 09:38:57;;;;;;;;;14.50;13.00;;;;;14.67;65.86;102170.03;5017918;28;45392;-80
2021/10/27 09:43:37;;;;;;;;;16.50;14.50;;;;;14.70;66.12;102159.78;5057317;28;46659;-78
